Аэропорт: Адлер. Сочи

ICAO: URSS

METAR:
2021-04-21 19:30:00
URSS 211930Z 05001MPS 9999 BKN130 10/09 Q1020 WS ALL RWY R02/010070 R06/010070 NOSIG RMK R06/33002MPS QFE763
METAR:
2021-04-21 16:55:00
TAF URSS 211655Z 2118/2218 VRB01MPS 9999 BKN010 BKN100 TEMPO 2120/2205 15003G08MPS 2200 -DZ BR OVC004 BECMG 2205/2206 18003G08MPS FEW011 BKN020 BECMG 2208/2209 24005G10MPS TEMPO 2209/2217 VRB01MPS SCT008 BKN016 FM221800 14003G08MPS 5000 -DZ BR BKN007 OVC020